Time;durP1;ratioP1;P1;durP2;ratioP2;P2;SDS_P1;SDS_P2;PMS_P1;PMS_P2;Temp;Humidity;BMP_temperature;BMP_pressure;BME280_temperature;BME280_humidity;BME280_pressure;Samples;Min_cycle;Max_cycle;Signal;HPM_P1;HPM_P2
2023/03/09 00:01:35;;;;;;;;;;;8.40;99.90;;;;;;5045057;28;19960;-68
2023/03/09 00:04:02;;;;;;;;;;;8.40;99.90;;;;;;5047558;28;19933;-69
2023/03/09 00:06:29;;;;;;;;;;;8.40;99.90;;;;;;5062960;28;20267;-69
2023/03/09 00:09:03;;;;;;;;;;;8.40;99.90;;;;;;5061050;28;19987;-69
2023/03/09 00:11:30;;;;;;;;;;;8.40;99.90;;;;;;5045048;28;19921;-69
2023/03/09 00:13:56;;;;;;;;;;;8.40;99.90;;;;;;5044821;28;20000;-69
2023/03/09 00:16:24;;;;;;;;;;;8.40;99.90;;;;;;5043246;28;20280;-68
2023/03/09 00:18:53;;;;;;;;;;;8.40;99.90;;;;;;5044365;28;19928;-68
2023/03/09 00:24:16;;;;;;;;;;;8.40;99.90;;;;;;5121750;27;19944;-70
2023/03/09 00:26:44;;;;;;;;;;;8.50;99.90;;;;;;5120782;28;20018;-69
2023/03/09 00:29:11;;;;;;;;;;;8.40;99.90;;;;;;5121728;28;19920;-69
2023/03/09 00:31:38;;;;;;;;;;;8.40;99.90;;;;;;5121234;28;19924;-69
2023/03/09 00:34:04;;;;;;;;;;;8.40;99.90;;;;;;5121506;28;19987;-73
2023/03/09 00:36:31;;;;;;;;;;;8.40;99.90;;;;;;5120508;28;20151;-70
2023/03/09 00:38:58;;;;;;;;;;;8.40;99.90;;;;;;5121041;28;20168;-69
2023/03/09 00:41:28;;;;;;;;;;;8.40;99.90;;;;;;5121432;28;19961;-69
2023/03/09 00:43:55;;;;;;;;;;;8.50;99.90;;;;;;5121073;28;19920;-69
2023/03/09 00:46:21;;;;;;;;;;;8.40;99.90;;;;;;5120268;28;19999;-69
2023/03/09 00:48:48;;;;;;;;;;;8.40;99.90;;;;;;5121176;28;19987;-69
2023/03/09 00:51:14;;;;;;;;;;;8.30;99.90;;;;;;5121097;28;19951;-69
2023/03/09 00:53:41;;;;;;;;;;;8.30;99.90;;;;;;5121251;28;19951;-69
2023/03/09 00:56:09;;;;;;;;;;;8.30;99.90;;;;;;5114022;28;19947;-70
2023/03/09 00:58:37;;;;;;;;;;;8.30;99.90;;;;;;5100365;28;20120;-69
2023/03/09 01:01:07;;;;;;;;;;;8.40;99.90;;;;;;5100656;28;20046;-69
2023/03/09 01:03:33;;;;;;;;;;;8.40;99.90;;;;;;5116018;28;19920;-70
2023/03/09 01:06:00;;;;;;;;;;;8.30;99.90;;;;;;5120052;28;19951;-69
2023/03/09 01:08:27;;;;;;;;;;;8.30;99.90;;;;;;5120610;28;19920;-69
2023/03/09 01:10:53;;;;;;;;;;;8.30;99.90;;;;;;5120474;28;19926;-70
2023/03/09 01:13:20;;;;;;;;;;;8.30;99.90;;;;;;5102660;28;19966;-70
2023/03/09 01:15:48;;;;;;;;;;;8.30;99.90;;;;;;5104599;28;19927;-69
2023/03/09 01:18:15;;;;;;;;;;;8.40;99.90;;;;;;5120365;28;19983;-68
2023/03/09 01:20:41;;;;;;;;;;;8.40;99.90;;;;;;5120633;28;19962;-69
2023/03/09 01:23:08;;;;;;;;;;;8.50;99.90;;;;;;5132227;28;19959;-69
2023/03/09 01:25:35;;;;;;;;;;;8.50;99.90;;;;;;5140759;28;19919;-70
2023/03/09 01:28:01;;;;;;;;;;;8.60;99.90;;;;;;5140419;28;20163;-70
2023/03/09 01:30:28;;;;;;;;;;;8.70;99.90;;;;;;5140872;28;19986;-69
2023/03/09 01:32:56;;;;;;;;;;;8.80;99.90;;;;;;5140928;28;19920;-69
2023/03/09 01:35:22;;;;;;;;;;;8.80;99.90;;;;;;5122640;28;20113;-69
2023/03/09 01:37:49;;;;;;;;;;;8.80;99.90;;;;;;5126405;28;19991;-69
2023/03/09 01:40:17;;;;;;;;;;;8.80;99.90;;;;;;5127064;28;19947;-69
2023/03/09 01:42:43;;;;;;;;;;;8.70;99.90;;;;;;5127249;28;19926;-69
2023/03/09 01:45:29;;;;;;;;;;;8.60;99.90;;;;;;5126183;28;19947;-68
2023/03/09 01:47:59;;;;;;;;;;;8.60;99.90;;;;;;5110132;28;19987;-70
2023/03/09 01:50:26;;;;;;;;;;;8.50;99.90;;;;;;5112413;28;19951;-69
2023/03/09 01:52:54;;;;;;;;;;;8.50;99.90;;;;;;5126988;28;19942;-69
2023/03/09 01:55:23;;;;;;;;;;;8.50;99.90;;;;;;5126672;28;19935;-69
2023/03/09 01:57:53;;;;;;;;;;;8.50;99.90;;;;;;5125958;28;19977;-69
2023/03/09 02:00:21;;;;;;;;;;;8.40;99.90;;;;;;5125386;28;19920;-68
2023/03/09 02:02:50;;;;;;;;;;;8.40;99.90;;;;;;5126414;28;19979;-69
2023/03/09 02:05:24;;;;;;;;;;;8.50;99.90;;;;;;5118904;28;19978;-69
2023/03/09 02:07:51;;;;;;;;;;;8.50;99.90;;;;;;5123773;28;20326;-69
2023/03/09 02:10:21;;;;;;;;;;;8.60;99.90;;;;;;5106019;28;20162;-69
2023/03/09 02:12:52;;;;;;;;;;;8.60;99.90;;;;;;5106002;28;19955;-69
2023/03/09 02:15:19;;;;;;;;;;;8.60;99.90;;;;;;5105580;28;19966;-69
2023/03/09 02:17:46;;;;;;;;;;;8.60;99.90;;;;;;5105290;28;19970;-69
2023/03/09 02:20:17;;;;;;;;;;;8.60;99.90;;;;;;5111054;28;19987;-69
2023/03/09 02:22:46;;;;;;;;;;;8.60;99.90;;;;;;5126280;28;20156;-69
2023/03/09 02:25:17;;;;;;;;;;;8.70;99.90;;;;;;5126028;28;19920;-70
2023/03/09 02:27:45;;;;;;;;;;;8.60;99.90;;;;;;5125416;28;19958;-69
2023/03/09 02:30:12;;;;;;;;;;;8.60;99.90;;;;;;5126180;28;19923;-69
2023/03/09 02:32:39;;;;;;;;;;;8.60;99.90;;;;;;5126118;28;19920;-69
2023/03/09 02:35:09;;;;;;;;;;;8.50;99.90;;;;;;5108001;28;19931;-69
2023/03/09 02:37:37;;;;;;;;;;;8.60;99.90;;;;;;5104881;28;20372;-68
2023/03/09 02:40:10;;;;;;;;;;;8.60;99.90;;;;;;5105435;28;19986;-68
2023/03/09 02:42:37;;;;;;;;;;;8.60;99.90;;;;;;5105469;28;19965;-69
2023/03/09 02:45:06;;;;;;;;;;;8.60;99.90;;;;;;5105279;28;20116;-69
2023/03/09 02:47:33;;;;;;;;;;;8.70;99.90;;;;;;5117584;28;20002;-72
2023/03/09 02:49:59;;;;;;;;;;;8.70;99.90;;;;;;5124765;28;20383;-69
2023/03/09 02:52:26;;;;;;;;;;;8.70;99.90;;;;;;5125400;28;19920;-69
2023/03/09 02:54:53;;;;;;;;;;;8.70;99.90;;;;;;5125299;28;19983;-69
2023/03/09 02:57:19;;;;;;;;;;;8.70;99.90;;;;;;5125319;28;19926;-69
2023/03/09 02:59:46;;;;;;;;;;;8.70;99.90;;;;;;5124793;28;20157;-69
2023/03/09 03:02:14;;;;;;;;;;;8.70;99.90;;;;;;5124868;28;19928;-69
2023/03/09 03:04:41;;;;;;;;;;;8.80;99.90;;;;;;5124960;28;20169;-68
2023/03/09 03:07:07;;;;;;;;;;;8.80;99.90;;;;;;5124497;28;20259;-69
2023/03/09 03:09:34;;;;;;;;;;;8.80;99.90;;;;;;5125286;28;19962;-68
2023/03/09 03:12:00;;;;;;;;;;;8.90;99.90;;;;;;5125059;28;19974;-68
2023/03/09 03:14:27;;;;;;;;;;;8.90;99.90;;;;;;5125269;28;19986;-69
2023/03/09 03:16:54;;;;;;;;;;;8.80;99.90;;;;;;5124477;28;19969;-69
2023/03/09 03:19:22;;;;;;;;;;;8.90;99.90;;;;;;5125083;28;20001;-68
2023/03/09 03:21:49;;;;;;;;;;;8.90;99.90;;;;;;5125111;28;19930;-68
2023/03/09 03:24:16;;;;;;;;;;;8.90;99.90;;;;;;5125054;28;19920;-69
2023/03/09 03:26:43;;;;;;;;;;;8.90;99.90;;;;;;5124140;28;19926;-68
2023/03/09 03:29:09;;;;;;;;;;;8.90;99.90;;;;;;5125059;28;20203;-69
2023/03/09 03:31:36;;;;;;;;;;;8.90;99.90;;;;;;5124941;28;19983;-69
2023/03/09 03:34:03;;;;;;;;;;;9.00;99.90;;;;;;5124978;28;20103;-69
2023/03/09 03:36:31;;;;;;;;;;;8.90;99.90;;;;;;5123999;28;19919;-69
2023/03/09 03:38:57;;;;;;;;;;;8.90;99.90;;;;;;5124744;28;19952;-68
2023/03/09 03:41:24;;;;;;;;;;;8.90;99.90;;;;;;5124603;28;19962;-68
2023/03/09 03:43:51;;;;;;;;;;;8.90;99.90;;;;;;5116370;28;19938;-69
2023/03/09 03:46:17;;;;;;;;;;;8.90;99.90;;;;;;5103453;28;19920;-69
2023/03/09 03:48:44;;;;;;;;;;;8.90;99.90;;;;;;5104412;28;20165;-69
2023/03/09 03:51:11;;;;;;;;;;;8.90;99.90;;;;;;5124297;28;19983;-69
2023/03/09 03:53:39;;;;;;;;;;;8.80;99.90;;;;;;5124464;28;19956;-69
2023/03/09 03:56:06;;;;;;;;;;;8.70;99.90;;;;;;5124266;28;20105;-69
2023/03/09 03:58:32;;;;;;;;;;;8.70;99.90;;;;;;5124030;28;19987;-72
2023/03/09 04:00:59;;;;;;;;;;;8.70;99.90;;;;;;5124362;28;19987;-69
2023/03/09 04:03:25;;;;;;;;;;;8.60;99.90;;;;;;5122751;28;19962;-69
2023/03/09 04:05:52;;;;;;;;;;;8.60;99.90;;;;;;5121531;28;19955;-69
2023/03/09 04:08:19;;;;;;;;;;;8.50;99.90;;;;;;5123789;28;19919;-69
2023/03/09 04:10:47;;;;;;;;;;;8.50;99.90;;;;;;5106273;28;20162;-68
2023/03/09 04:13:13;;;;;;;;;;;8.50;99.90;;;;;;5103848;28;20115;-68
2023/03/09 04:15:40;;;;;;;;;;;8.40;99.90;;;;;;5103430;28;19920;-68
2023/03/09 04:18:07;;;;;;;;;;;8.40;99.90;;;;;;5103480;28;19927;-68
2023/03/09 04:20:34;;;;;;;;;;;8.40;99.90;;;;;;5103833;28;19983;-69
2023/03/09 04:23:00;;;;;;;;;;;8.40;99.90;;;;;;5103484;28;19920;-69
2023/03/09 04:25:27;;;;;;;;;;;8.30;99.90;;;;;;5120863;28;20279;-72
2023/03/09 04:27:56;;;;;;;;;;;8.30;99.90;;;;;;5123509;28;19983;-69
2023/03/09 04:30:23;;;;;;;;;;;8.30;99.90;;;;;;5124167;28;19927;-68
2023/03/09 04:32:49;;;;;;;;;;;8.30;99.90;;;;;;5103645;28;20287;-70
2023/03/09 04:35:17;;;;;;;;;;;8.20;99.90;;;;;;5103374;28;19983;-69
2023/03/09 04:37:44;;;;;;;;;;;8.20;99.90;;;;;;5118242;28;19920;-69
2023/03/09 04:40:11;;;;;;;;;;;8.20;99.90;;;;;;5124021;28;20179;-68
2023/03/09 04:42:38;;;;;;;;;;;8.20;99.90;;;;;;5123888;28;20226;-69
2023/03/09 04:45:06;;;;;;;;;;;8.20;99.90;;;;;;5121571;28;19995;-68
2023/03/09 04:47:33;;;;;;;;;;;8.10;99.90;;;;;;5123568;28;20197;-68
2023/03/09 04:50:00;;;;;;;;;;;8.10;99.90;;;;;;5123141;28;20168;-68
2023/03/09 04:52:26;;;;;;;;;;;8.10;99.90;;;;;;5123720;28;19927;-68
2023/03/09 04:54:54;;;;;;;;;;;8.10;99.90;;;;;;5123940;28;19995;-68
2023/03/09 04:57:21;;;;;;;;;;;8.10;99.90;;;;;;5123125;28;20272;-68
2023/03/09 04:59:47;;;;;;;;;;;8.00;99.90;;;;;;5123759;28;20254;-69
2023/03/09 05:02:15;;;;;;;;;;;8.00;99.90;;;;;;5123871;28;19927;-68
2023/03/09 05:04:42;;;;;;;;;;;8.00;99.90;;;;;;5123438;28;19932;-69
2023/03/09 05:07:09;;;;;;;;;;;8.00;99.90;;;;;;5122816;28;20186;-69
2023/03/09 05:09:35;;;;;;;;;;;8.00;99.90;;;;;;5116974;28;19955;-69
2023/03/09 05:12:02;;;;;;;;;;;8.00;99.90;;;;;;5107137;28;19990;-68
2023/03/09 05:14:29;;;;;;;;;;;8.00;99.90;;;;;;5106718;28;19983;-73
2023/03/09 05:16:55;;;;;;;;;;;7.90;99.90;;;;;;5106213;28;19920;-69
2023/03/09 05:19:23;;;;;;;;;;;7.90;99.90;;;;;;5107044;28;19962;-69
2023/03/09 05:21:50;;;;;;;;;;;7.80;99.90;;;;;;5117427;28;19920;-69
2023/03/09 05:24:17;;;;;;;;;;;7.80;99.90;;;;;;5120537;28;19999;-69
2023/03/09 05:26:43;;;;;;;;;;;7.80;99.90;;;;;;5106160;28;19920;-69
2023/03/09 05:29:10;;;;;;;;;;;7.80;99.90;;;;;;5106939;28;19951;-69
2023/03/09 05:31:37;;;;;;;;;;;7.80;99.90;;;;;;5106840;28;20167;-69
2023/03/09 05:34:03;;;;;;;;;;;7.80;99.90;;;;;;5106707;28;19926;-69
2023/03/09 05:36:31;;;;;;;;;;;7.80;99.90;;;;;;5109277;28;20259;-69
2023/03/09 05:38:58;;;;;;;;;;;7.80;99.90;;;;;;5127245;28;19919;-68
2023/03/09 05:41:25;;;;;;;;;;;7.70;99.90;;;;;;5112323;28;20359;-69
2023/03/09 05:43:52;;;;;;;;;;;7.70;99.90;;;;;;5103915;28;19928;-69
2023/03/09 05:46:18;;;;;;;;;;;7.70;99.90;;;;;;5105828;28;19920;-68
2023/03/09 05:48:47;;;;;;;;;;;7.70;99.90;;;;;;5104136;28;19928;-71
2023/03/09 05:51:15;;;;;;;;;;;7.70;99.90;;;;;;5106359;28;19986;-68
2023/03/09 05:53:43;;;;;;;;;;;7.70;99.90;;;;;;5106428;28;19920;-68
2023/03/09 05:56:09;;;;;;;;;;;7.70;99.90;;;;;;5106018;28;19920;-69
2023/03/09 05:58:36;;;;;;;;;;;7.70;99.90;;;;;;5106184;28;19920;-68
2023/03/09 06:01:02;;;;;;;;;;;7.70;99.90;;;;;;5106297;28;19988;-68
2023/03/09 06:03:29;;;;;;;;;;;7.80;99.90;;;;;;5118171;28;19955;-71
2023/03/09 06:05:59;;;;;;;;;;;7.80;99.90;;;;;;5123665;28;19920;-69
2023/03/09 06:08:26;;;;;;;;;;;7.80;99.90;;;;;;5116497;28;19927;-67
2023/03/09 06:10:54;;;;;;;;;;;7.80;99.90;;;;;;5105766;28;19988;-69
2023/03/09 06:13:21;;;;;;;;;;;7.80;99.90;;;;;;5105717;28;19920;-68
2023/03/09 06:15:47;;;;;;;;;;;7.80;99.90;;;;;;5123467;28;19927;-69
2023/03/09 06:18:14;;;;;;;;;;;7.80;99.90;;;;;;5125549;28;19951;-68
2023/03/09 06:20:41;;;;;;;;;;;7.90;99.90;;;;;;5126193;28;19926;-68
2023/03/09 06:23:07;;;;;;;;;;;7.90;99.90;;;;;;5125911;28;19951;-72
2023/03/09 06:25:34;;;;;;;;;;;7.90;99.90;;;;;;5125552;28;19970;-67
2023/03/09 06:28:02;;;;;;;;;;;7.90;99.90;;;;;;5121033;28;20268;-69
2023/03/09 06:30:28;;;;;;;;;;;7.90;99.90;;;;;;5105911;28;19920;-69
2023/03/09 06:32:56;;;;;;;;;;;7.90;99.90;;;;;;5101135;28;20172;-70
2023/03/09 06:35:23;;;;;;;;;;;7.90;99.90;;;;;;5105378;28;19924;-69
2023/03/09 06:37:50;;;;;;;;;;;7.90;99.90;;;;;;5117049;28;20005;-69
2023/03/09 06:40:17;;;;;;;;;;;7.90;99.90;;;;;;5125462;28;19986;-69
2023/03/09 06:42:46;;;;;;;;;;;7.90;99.90;;;;;;5124898;28;19975;-69
2023/03/09 06:45:14;;;;;;;;;;;7.90;99.90;;;;;;5125613;28;20287;-69
2023/03/09 06:47:40;;;;;;;;;;;7.90;99.90;;;;;;5121204;28;19919;-69
2023/03/09 06:50:07;;;;;;;;;;;8.00;99.90;;;;;;5125655;28;20084;-69
2023/03/09 06:52:34;;;;;;;;;;;8.00;99.90;;;;;;5125644;28;19919;-68
2023/03/09 06:55:00;;;;;;;;;;;8.10;99.90;;;;;;5125539;28;19966;-69
2023/03/09 06:57:27;;;;;;;;;;;8.00;99.90;;;;;;5125058;28;19919;-69
2023/03/09 06:59:54;;;;;;;;;;;8.00;99.90;;;;;;5125694;28;19979;-69
2023/03/09 07:02:22;;;;;;;;;;;8.10;99.90;;;;;;5125410;28;20119;-69
2023/03/09 07:04:48;;;;;;;;;;;8.00;99.90;;;;;;5124719;28;19926;-69
2023/03/09 07:07:15;;;;;;;;;;;8.00;99.90;;;;;;5124792;28;19926;-69
2023/03/09 07:09:41;;;;;;;;;;;8.10;99.90;;;;;;5120328;28;20178;-69
2023/03/09 07:12:08;;;;;;;;;;;8.10;99.90;;;;;;5125412;28;19963;-69
2023/03/09 07:14:35;;;;;;;;;;;8.10;99.90;;;;;;5124966;28;19920;-68
2023/03/09 07:17:01;;;;;;;;;;;8.10;99.90;;;;;;5124266;28;20180;-69
2023/03/09 07:19:29;;;;;;;;;;;8.10;99.90;;;;;;5124453;28;19988;-73
2023/03/09 07:21:56;;;;;;;;;;;8.10;99.90;;;;;;5124951;28;19919;-70
2023/03/09 07:24:23;;;;;;;;;;;8.10;99.90;;;;;;5125196;28;19970;-69
2023/03/09 07:26:50;;;;;;;;;;;8.20;99.90;;;;;;5123381;28;20111;-69
2023/03/09 07:29:16;;;;;;;;;;;8.20;99.90;;;;;;5124748;28;19988;-69
2023/03/09 07:31:43;;;;;;;;;;;8.30;99.90;;;;;;5124783;27;19957;-69
2023/03/09 07:34:10;;;;;;;;;;;8.30;99.90;;;;;;5125190;28;19920;-69
2023/03/09 07:36:37;;;;;;;;;;;8.30;99.90;;;;;;5123966;28;20159;-68
2023/03/09 07:39:04;;;;;;;;;;;8.30;99.90;;;;;;5124874;28;19920;-69
2023/03/09 07:41:32;;;;;;;;;;;8.30;99.90;;;;;;5122102;28;19920;-72
2023/03/09 07:43:58;;;;;;;;;;;8.30;99.90;;;;;;5122837;28;19988;-69
2023/03/09 07:46:25;;;;;;;;;;;8.30;99.90;;;;;;5123975;28;19995;-69
2023/03/09 07:48:52;;;;;;;;;;;8.30;99.90;;;;;;5124645;28;19942;-68
2023/03/09 07:51:19;;;;;;;;;;;8.20;99.90;;;;;;5124739;28;19923;-68
2023/03/09 07:53:47;;;;;;;;;;;8.20;99.90;;;;;;5124265;28;20250;-69
2023/03/09 07:56:13;;;;;;;;;;;8.20;99.90;;;;;;5123977;28;19987;-72
2023/03/09 07:58:40;;;;;;;;;;;8.20;99.90;;;;;;5124273;28;19995;-71
2023/03/09 08:01:07;;;;;;;;;;;8.10;99.90;;;;;;5124686;28;20272;-69
2023/03/09 08:03:35;;;;;;;;;;;8.20;99.90;;;;;;5123927;27;20212;-69
2023/03/09 08:06:05;;;;;;;;;;;8.20;99.90;;;;;;5123817;28;19981;-69
2023/03/09 08:08:32;;;;;;;;;;;8.20;99.90;;;;;;5118312;28;19979;-69
2023/03/09 08:11:00;;;;;;;;;;;8.20;99.90;;;;;;5103919;28;19920;-69
2023/03/09 08:13:27;;;;;;;;;;;8.20;99.90;;;;;;5104132;28;19920;-69
2023/03/09 08:15:54;;;;;;;;;;;8.30;99.90;;;;;;5113337;28;20390;-69
2023/03/09 08:18:20;;;;;;;;;;;8.30;99.90;;;;;;5124126;28;19987;-69
2023/03/09 08:20:47;;;;;;;;;;;8.30;99.90;;;;;;5124062;28;19955;-69
2023/03/09 08:23:14;;;;;;;;;;;8.30;99.90;;;;;;5124126;28;19920;-69
2023/03/09 08:25:41;;;;;;;;;;;8.30;99.90;;;;;;5123606;28;19927;-69
2023/03/09 08:28:10;;;;;;;;;;;8.40;99.90;;;;;;5123677;28;19919;-68
2023/03/09 08:30:37;;;;;;;;;;;8.40;99.90;;;;;;5124398;28;19940;-72
2023/03/09 08:33:04;;;;;;;;;;;8.40;99.90;;;;;;5123891;28;19928;-69
2023/03/09 08:35:32;;;;;;;;;;;8.40;99.90;;;;;;5124084;28;19920;-69
2023/03/09 08:37:59;;;;;;;;;;;8.40;99.90;;;;;;5122778;28;19927;-70
2023/03/09 08:40:26;;;;;;;;;;;8.40;99.90;;;;;;5123939;28;20200;-69
2023/03/09 08:42:52;;;;;;;;;;;8.40;99.90;;;;;;5122562;28;19920;-69
2023/03/09 08:45:20;;;;;;;;;;;8.50;99.90;;;;;;5126854;28;19999;-69
2023/03/09 08:47:47;;;;;;;;;;;8.50;99.90;;;;;;5127632;28;19942;-69
2023/03/09 08:50:14;;;;;;;;;;;8.50;99.90;;;;;;5127743;28;19926;-69
2023/03/09 08:52:41;;;;;;;;;;;8.50;99.90;;;;;;5128596;28;19926;-69
2023/03/09 08:55:08;;;;;;;;;;;8.50;99.90;;;;;;5127630;28;19920;-69
2023/03/09 08:57:35;;;;;;;;;;;8.50;99.90;;;;;;5127078;28;19995;-71
2023/03/09 09:00:03;;;;;;;;;;;8.50;99.90;;;;;;5127475;28;19941;-70
2023/03/09 09:02:31;;;;;;;;;;;8.50;99.90;;;;;;5127679;28;20130;-70
2023/03/09 09:04:57;;;;;;;;;;;8.50;99.90;;;;;;5127511;28;19920;-69
2023/03/09 09:07:24;;;;;;;;;;;8.60;99.90;;;;;;5126980;28;19920;-70
2023/03/09 09:09:51;;;;;;;;;;;8.60;99.90;;;;;;5127543;28;19961;-70
2023/03/09 09:12:18;;;;;;;;;;;8.60;99.90;;;;;;5127328;28;19986;-69
2023/03/09 09:14:44;;;;;;;;;;;8.60;99.90;;;;;;5127557;28;19920;-70
2023/03/09 09:17:12;;;;;;;;;;;8.50;99.90;;;;;;5124422;28;19991;-70
2023/03/09 09:19:41;;;;;;;;;;;8.60;99.90;;;;;;5127595;28;19961;-70
2023/03/09 09:22:08;;;;;;;;;;;8.60;99.90;;;;;;5127200;28;20200;-70
2023/03/09 09:24:37;;;;;;;;;;;8.60;99.90;;;;;;5127657;28;19942;-68
2023/03/09 09:27:04;;;;;;;;;;;8.60;99.90;;;;;;5126378;28;19920;-70
2023/03/09 09:29:31;;;;;;;;;;;8.60;99.90;;;;;;5127065;28;19955;-69
2023/03/09 09:31:58;;;;;;;;;;;8.70;99.90;;;;;;5126917;28;19926;-70
2023/03/09 09:34:25;;;;;;;;;;;8.70;99.90;;;;;;5127154;28;20157;-70
2023/03/09 09:36:53;;;;;;;;;;;8.70;99.90;;;;;;5126473;28;20114;-71
2023/03/09 09:39:20;;;;;;;;;;;8.70;99.90;;;;;;5127158;28;19919;-70
2023/03/09 09:41:48;;;;;;;;;;;8.70;99.90;;;;;;5126983;28;19920;-72
2023/03/09 09:44:16;;;;;;;;;;;8.80;99.90;;;;;;5124529;28;20207;-71
2023/03/09 09:46:43;;;;;;;;;;;8.90;99.90;;;;;;5126006;28;19920;-71
2023/03/09 09:49:14;;;;;;;;;;;8.90;99.90;;;;;;5127064;28;19983;-71
2023/03/09 09:51:47;;;;;;;;;;;8.90;99.90;;;;;;5126939;28;19920;-70
2023/03/09 09:54:20;;;;;;;;;;;8.90;99.90;;;;;;5126943;28;19961;-71
2023/03/09 09:56:48;;;;;;;;;;;8.90;99.90;;;;;;5125952;28;19920;-70
2023/03/09 09:59:19;;;;;;;;;;;8.90;99.90;;;;;;5126810;28;19927;-71
2023/03/09 10:01:50;;;;;;;;;;;8.90;99.90;;;;;;5119582;28;19926;-70
2023/03/09 10:04:19;;;;;;;;;;;8.90;99.90;;;;;;5126457;28;19962;-70
2023/03/09 10:06:47;;;;;;;;;;;9.00;99.90;;;;;;5126215;28;19919;-70
2023/03/09 10:09:19;;;;;;;;;;;9.00;99.90;;;;;;5121165;28;19928;-70
2023/03/09 10:11:47;;;;;;;;;;;9.10;99.90;;;;;;5105788;28;19920;-70
2023/03/09 10:14:21;;;;;;;;;;;9.10;99.90;;;;;;5105777;28;20239;-69
2023/03/09 10:16:49;;;;;;;;;;;9.10;99.90;;;;;;5106682;28;19919;-70
2023/03/09 10:19:16;;;;;;;;;;;9.20;99.90;;;;;;5109252;28;19919;-70
2023/03/09 10:21:46;;;;;;;;;;;9.20;99.90;;;;;;5112015;28;19920;-71
2023/03/09 10:24:20;;;;;;;;;;;9.10;99.90;;;;;;5105913;28;19920;-71
2023/03/09 10:26:51;;;;;;;;;;;9.10;99.90;;;;;;5105185;28;19974;-71
2023/03/09 10:29:21;;;;;;;;;;;9.20;99.90;;;;;;5105707;28;19987;-70
2023/03/09 10:31:51;;;;;;;;;;;9.20;99.90;;;;;;5123324;28;19920;-69
2023/03/09 10:34:19;;;;;;;;;;;9.20;99.90;;;;;;5113992;28;19974;-70
2023/03/09 10:36:53;;;;;;;;;;;9.20;99.90;;;;;;5104872;28;19983;-70
2023/03/09 10:39:22;;;;;;;;;;;9.30;99.90;;;;;;5105367;28;20163;-70
2023/03/09 10:41:49;;;;;;;;;;;9.40;99.90;;;;;;5122463;28;19919;-71
2023/03/09 10:44:19;;;;;;;;;;;9.40;99.90;;;;;;5125905;28;19920;-70
2023/03/09 10:46:56;;;;;;;;;;;9.50;99.90;;;;;;5125039;28;19920;-70
2023/03/09 10:49:22;;;;;;;;;;;9.60;99.90;;;;;;5125946;28;19983;-69
2023/03/09 10:51:55;;;;;;;;;;;9.60;99.90;;;;;;5109331;28;20275;-69
2023/03/09 10:54:27;;;;;;;;;;;9.60;99.90;;;;;;5105273;28;19978;-70
2023/03/09 10:56:53;;;;;;;;;;;9.70;99.90;;;;;;5104948;28;19927;-70
2023/03/09 10:59:21;;;;;;;;;;;9.70;99.90;;;;;;5104886;28;19920;-70
2023/03/09 11:01:48;;;;;;;;;;;9.70;99.90;;;;;;5105745;28;19920;-70
2023/03/09 11:04:36;;;;;;;;;;;9.70;99.90;;;;;;5125314;28;20115;-71
2023/03/09 11:07:03;;;;;;;;;;;9.70;99.90;;;;;;5123805;28;19962;-70
2023/03/09 11:09:33;;;;;;;;;;;9.80;99.90;;;;;;5125267;28;19999;-69
2023/03/09 11:12:09;;;;;;;;;;;9.80;99.90;;;;;;5125425;28;20203;-70
2023/03/09 11:14:41;;;;;;;;;;;9.80;99.90;;;;;;5124976;28;20229;-70
2023/03/09 11:17:14;;;;;;;;;;;9.80;99.90;;;;;;5124354;28;19926;-69
2023/03/09 11:19:40;;;;;;;;;;;9.90;99.90;;;;;;5125018;28;19924;-72
2023/03/09 11:22:11;;;;;;;;;;;9.90;99.90;;;;;;5106132;28;19987;-70
2023/03/09 11:24:43;;;;;;;;;;;10.00;99.90;;;;;;5104231;28;20219;-70
2023/03/09 11:27:11;;;;;;;;;;;10.10;99.90;;;;;;5104341;28;20146;-69
2023/03/09 11:29:44;;;;;;;;;;;10.10;99.90;;;;;;5104390;28;19920;-71
2023/03/09 11:32:11;;;;;;;;;;;10.10;99.90;;;;;;5104599;28;19927;-70
2023/03/09 11:34:40;;;;;;;;;;;10.10;99.90;;;;;;5104223;28;19927;-70
2023/03/09 11:37:09;;;;;;;;;;;10.10;99.90;;;;;;5111555;28;20115;-70
2023/03/09 11:39:38;;;;;;;;;;;10.10;99.90;;;;;;5124499;28;19920;-70
2023/03/09 11:42:10;;;;;;;;;;;10.10;99.90;;;;;;5124782;28;19919;-71
2023/03/09 11:44:37;;;;;;;;;;;10.00;99.90;;;;;;5124552;28;19920;-69
2023/03/09 11:47:05;;;;;;;;;;;10.10;99.90;;;;;;5123683;28;19995;-70
2023/03/09 11:49:32;;;;;;;;;;;10.10;99.90;;;;;;5124661;28;19985;-70
2023/03/09 11:51:59;;;;;;;;;;;10.10;99.90;;;;;;5124473;28;19951;-70
2023/03/09 11:54:29;;;;;;;;;;;10.10;99.90;;;;;;5124532;28;19920;-71
2023/03/09 11:56:56;;;;;;;;;;;10.10;99.90;;;;;;5124028;28;19920;-71
2023/03/09 11:59:26;;;;;;;;;;;10.10;99.90;;;;;;5124137;28;19926;-71
2023/03/09 12:01:55;;;;;;;;;;;10.10;99.90;;;;;;5124225;28;19928;-70
2023/03/09 12:04:21;;;;;;;;;;;10.10;99.90;;;;;;5124287;28;19951;-71
2023/03/09 12:06:51;;;;;;;;;;;10.00;99.90;;;;;;5123566;28;20007;-70
2023/03/09 12:09:23;;;;;;;;;;;10.10;99.90;;;;;;5118091;28;20258;-70
2023/03/09 12:11:52;;;;;;;;;;;10.10;99.90;;;;;;5103755;28;19924;-70
2023/03/09 12:14:20;;;;;;;;;;;10.20;99.90;;;;;;5105359;28;19920;-70
2023/03/09 12:16:51;;;;;;;;;;;10.20;99.90;;;;;;5123947;28;20130;-70
2023/03/09 12:19:18;;;;;;;;;;;10.10;99.90;;;;;;5106590;28;19988;-72
2023/03/09 12:21:47;;;;;;;;;;;10.00;99.90;;;;;;5103910;28;19920;-69
2023/03/09 12:24:26;;;;;;;;;;;10.00;99.90;;;;;;5103640;28;19920;-70
2023/03/09 12:26:57;;;;;;;;;;;9.90;99.90;;;;;;5102815;28;19926;-71
2023/03/09 12:29:24;;;;;;;;;;;9.90;99.90;;;;;;5103817;28;19920;-71
2023/03/09 12:32:09;;;;;;;;;;;9.90;99.90;;;;;;5103419;28;20286;-70
2023/03/09 12:34:41;;;;;;;;;;;10.00;99.90;;;;;;5103402;28;19991;-71
2023/03/09 12:37:31;;;;;;;;;;;10.10;99.90;;;;;;5102795;28;20238;-71
2023/03/09 12:39:58;;;;;;;;;;;10.30;99.90;;;;;;5103357;28;19987;-71
2023/03/09 12:42:30;;;;;;;;;;;10.40;99.90;;;;;;5103560;28;19995;-69
2023/03/09 12:45:01;;;;;;;;;;;10.50;99.90;;;;;;5105192;28;19920;-70
2023/03/09 12:47:36;;;;;;;;;;;10.50;99.90;;;;;;5121918;28;19927;-69
2023/03/09 12:50:05;;;;;;;;;;;10.50;99.90;;;;;;5122831;28;19920;-70
2023/03/09 12:52:39;;;;;;;;;;;10.60;99.90;;;;;;5123953;28;19919;-70
2023/03/09 12:55:18;;;;;;;;;;;10.60;99.90;;;;;;5123433;28;19926;-70
2023/03/09 12:57:45;;;;;;;;;;;11.00;99.90;;;;;;5123576;28;20110;-69
2023/03/09 13:00:12;;;;;;;;;;;11.30;99.90;;;;;;5123672;28;19927;-71
2023/03/09 13:02:41;;;;;;;;;;;11.40;99.90;;;;;;5123867;28;19920;-70
2023/03/09 13:05:28;;;;;;;;;;;11.50;99.90;;;;;;5123398;28;19919;-71
2023/03/09 13:07:58;;;;;;;;;;;11.50;99.90;;;;;;5116348;28;19995;-71
2023/03/09 13:10:28;;;;;;;;;;;11.60;99.90;;;;;;5121024;28;20130;-69
2023/03/09 13:12:55;;;;;;;;;;;11.60;99.90;;;;;;5123456;28;19920;-72
2023/03/09 13:15:23;;;;;;;;;;;11.60;99.90;;;;;;5123680;28;19986;-70
2023/03/09 13:18:20;;;;;;;;;;;11.60;99.90;;;;;;5123013;28;19926;-69
2023/03/09 13:20:46;;;;;;;;;;;11.50;99.90;;;;;;5060935;28;19921;-71
2023/03/09 13:23:16;;;;;;;;;;;11.50;99.90;;;;;;5108295;28;19962;-70
2023/03/09 13:25:44;;;;;;;;;;;11.60;99.90;;;;;;5120743;28;19983;-72
2023/03/09 13:28:15;;;;;;;;;;;11.80;99.90;;;;;;5103072;28;19920;-73
2023/03/09 13:30:44;;;;;;;;;;;12.20;99.90;;;;;;5104895;28;19920;-70
2023/03/09 13:33:15;;;;;;;;;;;12.40;99.90;;;;;;5106817;28;19926;-71
2023/03/09 13:35:43;;;;;;;;;;;12.40;99.90;;;;;;5104015;28;19926;-70
2023/03/09 13:38:18;;;;;;;;;;;12.20;99.90;;;;;;5108121;28;19930;-69
2023/03/09 13:40:50;;;;;;;;;;;12.00;99.90;;;;;;5126174;28;20119;-70
2023/03/09 13:43:18;;;;;;;;;;;11.90;99.90;;;;;;5114428;28;19956;-70
2023/03/09 13:45:54;;;;;;;;;;;11.90;99.90;;;;;;5105612;28;19920;-69
2023/03/09 13:48:21;;;;;;;;;;;11.90;99.90;;;;;;5106089;28;19924;-70
2023/03/09 13:50:48;;;;;;;;;;;11.90;99.90;;;;;;5106580;28;19919;-69
2023/03/09 13:53:22;;;;;;;;;;;11.80;99.90;;;;;;5104312;28;19926;-70
2023/03/09 13:55:55;;;;;;;;;;;11.80;99.90;;;;;;5108847;28;20107;-70
2023/03/09 13:58:23;;;;;;;;;;;11.80;99.90;;;;;;5126302;28;19919;-70
2023/03/09 14:00:51;;;;;;;;;;;11.80;99.90;;;;;;5126594;28;19969;-70
2023/03/09 14:03:18;;;;;;;;;;;11.70;99.90;;;;;;5126634;28;19927;-70
2023/03/09 14:05:53;;;;;;;;;;;11.70;99.90;;;;;;5125938;28;19920;-69
2023/03/09 14:08:21;;;;;;;;;;;11.60;99.90;;;;;;5126282;28;19926;-71
2023/03/09 14:10:48;;;;;;;;;;;11.70;99.90;;;;;;5107998;28;19920;-71
2023/03/09 14:13:19;;;;;;;;;;;11.60;99.90;;;;;;5105721;28;19987;-70
2023/03/09 14:15:49;;;;;;;;;;;11.50;99.90;;;;;;5105704;28;19942;-69
2023/03/09 14:18:23;;;;;;;;;;;11.30;99.90;;;;;;5105513;28;19991;-70
2023/03/09 14:20:50;;;;;;;;;;;11.10;99.90;;;;;;5106113;28;19936;-70
2023/03/09 14:23:17;;;;;;;;;;;10.90;99.90;;;;;;5105569;28;20241;-69
2023/03/09 14:25:43;;;;;;;;;;;10.80;99.90;;;;;;5105848;28;19952;-69
2023/03/09 14:28:25;;;;;;;;;;;10.70;99.90;;;;;;5102269;28;19986;-69
2023/03/09 14:30:52;;;;;;;;;;;10.60;99.90;;;;;;5105848;28;19920;-70
2023/03/09 14:33:23;;;;;;;;;;;10.50;99.90;;;;;;5111723;28;19920;-72
2023/03/09 14:35:50;;;;;;;;;;;10.50;99.90;;;;;;5123253;28;19919;-70